createdAt,value
2023-04-14T00:02:35.503Z,72.79
2023-04-14T00:05:21.720Z,72.83
2023-04-14T00:08:06.914Z,72.71
2023-04-14T00:10:52.427Z,72.62
2023-04-14T00:13:38.064Z,72.19
2023-04-14T00:16:23.872Z,72.45
2023-04-14T00:19:09.300Z,72.27
2023-04-14T00:25:04.631Z,72.36
2023-04-14T00:27:49.807Z,72.51
2023-04-14T00:30:35.143Z,72.00
2023-04-14T00:33:21.026Z,72.49
2023-04-14T00:36:07.035Z,72.43
2023-04-14T00:38:52.553Z,72.60
2023-04-14T00:41:37.924Z,73.60
2023-04-14T00:44:23.491Z,74.10
2023-04-14T00:47:09.278Z,74.55
2023-04-14T00:49:54.800Z,74.19
2023-04-14T00:52:41.316Z,75.09
2023-04-14T00:55:26.814Z,74.93
2023-04-14T00:58:15.204Z,74.84
2023-04-14T01:01:01.086Z,75.02
2023-04-14T01:03:47.673Z,74.70
2023-04-14T01:06:33.121Z,75.11
2023-04-14T01:09:19.252Z,74.88
2023-04-14T01:12:23.717Z,75.29
2023-04-14T01:15:42.639Z,75.07
2023-04-14T01:18:27.836Z,74.86
2023-04-14T01:21:28.718Z,75.01
2023-04-14T01:24:16.871Z,75.56
2023-04-14T01:27:32.619Z,75.61
2023-04-14T01:30:45.465Z,75.77
2023-04-14T01:33:36.678Z,75.31
2023-04-14T01:36:30.383Z,75.23
2023-04-14T01:39:21.348Z,76.03
2023-04-14T01:42:11.305Z,75.52
2023-04-14T01:45:02.443Z,74.87
2023-04-14T01:47:51.678Z,75.03
2023-04-14T01:50:38.933Z,74.32
2023-04-14T01:53:27.126Z,74.67
2023-04-14T01:56:15.962Z,73.94
2023-04-14T01:59:02.719Z,74.61
2023-04-14T02:01:50.975Z,74.25
2023-04-14T02:04:38.296Z,73.59
2023-04-14T02:07:25.937Z,74.07
2023-04-14T02:10:15.208Z,74.15
2023-04-14T02:13:03.998Z,73.51
2023-04-14T02:15:51.169Z,73.52
2023-04-14T02:18:41.344Z,73.63
2023-04-14T02:21:28.985Z,74.02
2023-04-14T02:24:14.998Z,74.32
2023-04-14T02:27:13.780Z,73.43
2023-04-14T02:30:02.450Z,73.77
2023-04-14T02:32:53.111Z,73.69
2023-04-14T02:35:46.289Z,73.74
2023-04-14T02:38:48.180Z,73.64
2023-04-14T02:41:37.840Z,73.94
2023-04-14T02:44:30.050Z,74.05
2023-04-14T02:47:38.207Z,74.23
2023-04-14T02:50:27.148Z,74.66
2023-04-14T02:53:33.992Z,74.76
2023-04-14T02:56:30.187Z,74.99
2023-04-14T02:59:18.136Z,74.40
2023-04-14T03:02:17.877Z,75.00
2023-04-14T03:05:09.596Z,75.18
2023-04-14T03:08:12.068Z,75.24
2023-04-14T03:11:02.640Z,75.17
2023-04-14T03:13:52.953Z,74.69
2023-04-14T03:16:39.878Z,74.42
2023-04-14T03:19:28.166Z,74.51
2023-04-14T03:22:15.461Z,74.64
2023-04-14T03:25:00.993Z,74.96
2023-04-14T03:27:52.207Z,74.88
2023-04-14T03:30:42.972Z,74.85
2023-04-14T03:33:31.618Z,75.58
2023-04-14T03:36:19.909Z,75.66
2023-04-14T03:39:05.942Z,75.55
2023-04-14T03:41:56.937Z,75.42
2023-04-14T03:44:43.517Z,75.80
2023-04-14T03:47:29.187Z,76.27
2023-04-14T03:50:21.439Z,75.92
2023-04-14T03:53:10.541Z,75.68
2023-04-14T03:55:58.204Z,75.91
2023-04-14T03:58:45.371Z,75.44
2023-04-14T04:01:33.094Z,75.64
2023-04-14T04:04:18.991Z,76.12
2023-04-14T04:07:06.501Z,76.25
2023-04-14T04:09:53.241Z,76.52
2023-04-14T04:12:42.507Z,75.67
2023-04-14T04:15:28.901Z,75.93
2023-04-14T04:18:17.181Z,76.21
2023-04-14T04:21:04.704Z,76.45
2023-04-14T04:23:54.179Z,76.28
2023-04-14T04:26:39.968Z,76.08
2023-04-14T04:29:26.517Z,75.90
2023-04-14T04:32:12.190Z,75.95
2023-04-14T04:34:58.725Z,76.14
2023-04-14T04:37:45.127Z,75.92
2023-04-14T04:40:38.422Z,75.88
2023-04-14T04:43:29.988Z,77.47
2023-04-14T04:46:25.027Z,77.91
2023-04-14T04:49:10.534Z,77.22
2023-04-14T04:51:56.024Z,78.91
2023-04-14T04:54:41.782Z,79.07
2023-04-14T04:57:27.262Z,78.44
2023-04-14T05:00:12.991Z,78.19
2023-04-14T05:02:58.671Z,78.21
2023-04-14T05:05:44.091Z,78.32
2023-04-14T05:08:30.016Z,78.99
2023-04-14T05:11:15.489Z,79.59
2023-04-14T05:14:01.288Z,79.45
2023-04-14T05:16:46.476Z,80.27
2023-04-14T05:19:32.759Z,79.95
2023-04-14T05:22:18.359Z,80.19
2023-04-14T05:25:04.063Z,79.76
2023-04-14T05:27:49.342Z,79.96
2023-04-14T05:30:34.771Z,79.42
2023-04-14T05:33:20.292Z,79.01
2023-04-14T05:36:06.493Z,80.12
2023-04-14T05:38:51.919Z,80.59
2023-04-14T05:41:37.351Z,82.40
2023-04-14T05:44:22.657Z,82.77
2023-04-14T05:47:08.065Z,84.50
2023-04-14T05:49:53.348Z,83.45
2023-04-14T05:52:38.659Z,82.60
2023-04-14T05:55:24.158Z,82.60
2023-04-14T05:58:09.483Z,82.26
2023-04-14T06:00:54.698Z,83.20
2023-04-14T06:03:40.706Z,83.22
2023-04-14T06:06:26.361Z,83.18
2023-04-14T06:09:11.711Z,83.80
2023-04-14T06:11:57.362Z,83.56
2023-04-14T06:14:42.742Z,83.48
2023-04-14T06:17:28.296Z,83.22
2023-04-14T06:20:13.871Z,83.55
2023-04-14T06:22:59.432Z,83.12
2023-04-14T06:25:44.969Z,82.50
2023-04-14T06:28:30.227Z,82.62
2023-04-14T06:31:15.569Z,82.10
2023-04-14T06:34:01.234Z,82.65
2023-04-14T06:36:46.546Z,82.11
2023-04-14T06:39:32.079Z,81.93
2023-04-14T06:42:17.229Z,82.44
2023-04-14T06:45:02.652Z,82.29
2023-04-14T06:47:48.234Z,82.33
2023-04-14T06:50:33.967Z,82.51
2023-04-14T06:53:19.647Z,83.07
2023-04-14T06:56:06.968Z,83.57
2023-04-14T06:58:52.655Z,82.93
2023-04-14T07:01:38.057Z,82.16
2023-04-14T07:04:23.844Z,82.32
2023-04-14T07:07:09.121Z,81.59
2023-04-14T07:09:54.431Z,82.59
2023-04-14T07:12:40.178Z,82.53
2023-04-14T07:15:25.629Z,82.50
2023-04-14T07:18:11.184Z,84.77
2023-04-14T07:20:57.772Z,83.74
2023-04-14T07:23:43.229Z,84.97
2023-04-14T07:26:28.766Z,86.64
2023-04-14T07:29:14.206Z,87.75
2023-04-14T07:31:59.616Z,87.16
2023-04-14T07:34:45.307Z,87.59
2023-04-14T07:37:30.898Z,87.42
2023-04-14T07:40:16.234Z,87.48
2023-04-14T07:43:01.580Z,86.37
2023-04-14T07:45:47.339Z,85.50
2023-04-14T07:48:35.000Z,85.29
2023-04-14T07:51:20.529Z,84.40
2023-04-14T07:54:09.200Z,84.92
2023-04-14T07:56:54.778Z,85.49
2023-04-14T07:59:39.944Z,85.88
2023-04-14T08:02:25.998Z,85.44
2023-04-14T08:05:12.019Z,85.76
2023-04-14T08:07:57.399Z,84.95
2023-04-14T08:10:42.959Z,85.47
2023-04-14T08:13:28.274Z,86.88
2023-04-14T08:16:13.976Z,85.37
2023-04-14T08:18:59.805Z,84.93
2023-04-14T08:21:45.066Z,84.45
2023-04-14T08:24:30.860Z,83.94
2023-04-14T08:27:16.025Z,83.08
2023-04-14T08:30:01.649Z,82.15
2023-04-14T08:32:47.922Z,82.16
2023-04-14T08:35:39.149Z,81.84
2023-04-14T08:38:27.938Z,82.75
2023-04-14T08:41:14.135Z,82.63
2023-04-14T08:43:59.490Z,81.54
2023-04-14T08:46:49.813Z,82.32
2023-04-14T08:49:45.782Z,81.49
2023-04-14T08:52:33.794Z,81.06
2023-04-14T08:55:19.493Z,81.32
2023-04-14T08:58:07.518Z,81.70
2023-04-14T09:00:54.111Z,80.71
2023-04-14T09:03:40.616Z,81.28
2023-04-14T09:06:27.379Z,81.77
2023-04-14T09:09:13.137Z,81.25
2023-04-14T09:12:00.835Z,79.94
2023-04-14T09:14:46.390Z,79.92
2023-04-14T09:17:32.505Z,81.26
2023-04-14T09:20:38.579Z,80.75
2023-04-14T09:23:23.825Z,81.45
2023-04-14T09:26:09.771Z,80.53
2023-04-14T09:28:55.283Z,81.54
2023-04-14T09:31:40.792Z,81.75
2023-04-14T09:34:26.817Z,80.62
2023-04-14T09:37:12.107Z,80.80
2023-04-14T09:39:57.482Z,80.77
2023-04-14T09:42:43.197Z,80.06
2023-04-14T09:45:56.011Z,79.81
2023-04-14T09:48:55.317Z,80.47
2023-04-14T09:51:41.307Z,81.12
2023-04-14T09:54:27.219Z,79.99
2023-04-14T09:57:25.514Z,79.23
2023-04-14T10:00:31.625Z,76.37
2023-04-14T10:03:16.962Z,75.17
2023-04-14T10:06:09.859Z,77.21
2023-04-14T10:08:56.306Z,76.71
2023-04-14T10:11:41.726Z,77.67
2023-04-14T10:14:27.564Z,75.76
2023-04-14T10:17:13.097Z,77.02
2023-04-14T10:19:59.214Z,74.30
2023-04-14T10:22:44.746Z,73.16
2023-04-14T10:25:31.250Z,71.47
2023-04-14T10:28:17.052Z,70.96
2023-04-14T10:31:08.250Z,71.60
2023-04-14T10:33:54.813Z,70.82
2023-04-14T10:36:40.789Z,65.86
2023-04-14T10:39:26.307Z,68.29
2023-04-14T10:42:12.117Z,68.16
2023-04-14T10:45:08.489Z,68.13
2023-04-14T10:47:56.143Z,68.62
2023-04-14T10:50:47.356Z,65.79
2023-04-14T10:53:38.189Z,67.33
2023-04-14T10:56:24.912Z,66.83
2023-04-14T10:59:10.635Z,65.96
2023-04-14T11:01:57.127Z,65.47
2023-04-14T11:05:21.159Z,64.45
2023-04-14T11:08:16.871Z,65.18
2023-04-14T11:11:04.341Z,65.21
2023-04-14T11:14:10.715Z,62.90
2023-04-14T11:17:04.702Z,60.84
2023-04-14T11:19:54.104Z,61.80
2023-04-14T11:22:41.111Z,63.28
2023-04-14T11:25:26.425Z,62.87
2023-04-14T11:28:12.032Z,60.35
2023-04-14T11:30:59.597Z,60.70
2023-04-14T11:33:45.139Z,58.79
2023-04-14T11:36:30.832Z,60.61
2023-04-14T11:39:25.686Z,61.30
2023-04-14T11:42:12.914Z,60.50
2023-04-14T11:44:58.675Z,55.45
2023-04-14T11:48:04.887Z,54.74
2023-04-14T11:50:50.502Z,55.32
2023-04-14T11:53:36.381Z,56.15
2023-04-14T11:56:21.537Z,56.19
2023-04-14T11:59:07.286Z,59.51
2023-04-14T12:01:53.004Z,60.44
2023-04-14T12:04:39.214Z,60.10
2023-04-14T12:07:24.585Z,53.84
2023-04-14T12:10:10.374Z,54.06
2023-04-14T12:13:03.276Z,51.70
2023-04-14T12:15:48.985Z,50.92
2023-04-14T12:18:34.395Z,52.61
2023-04-14T12:21:20.008Z,53.62
2023-04-14T12:24:05.588Z,53.83
2023-04-14T12:26:51.996Z,54.59
2023-04-14T12:29:37.722Z,56.29
2023-04-14T12:32:23.365Z,55.45
2023-04-14T12:35:09.288Z,53.45
2023-04-14T12:37:54.975Z,54.92
2023-04-14T12:40:45.324Z,56.09
2023-04-14T12:43:38.944Z,55.49
2023-04-14T12:46:24.965Z,55.35
2023-04-14T12:49:29.560Z,57.07
2023-04-14T12:52:35.504Z,55.49
2023-04-14T12:55:23.439Z,58.00
2023-04-14T12:58:09.029Z,57.45
2023-04-14T13:00:54.253Z,57.74
2023-04-14T13:03:50.965Z,57.89
2023-04-14T13:06:36.922Z,56.83
2023-04-14T13:09:22.455Z,56.71
2023-04-14T13:12:08.418Z,58.39
2023-04-14T13:14:54.148Z,57.09
2023-04-14T13:17:39.535Z,57.84
2023-04-14T13:20:24.998Z,57.28
2023-04-14T13:23:10.822Z,56.30
2023-04-14T13:25:56.386Z,54.14
2023-04-14T13:28:42.029Z,54.96
2023-04-14T13:31:27.319Z,55.23
2023-04-14T13:34:12.551Z,54.14
2023-04-14T13:36:57.819Z,57.16
2023-04-14T13:39:43.084Z,55.16
2023-04-14T13:42:28.965Z,52.42
2023-04-14T13:45:14.224Z,53.07
2023-04-14T13:48:00.464Z,50.78
2023-04-14T13:50:45.872Z,52.79
2023-04-14T13:53:31.251Z,52.33
2023-04-14T13:56:16.825Z,52.17
2023-04-14T13:59:02.438Z,54.04
2023-04-14T14:01:48.233Z,52.82
2023-04-14T14:04:35.567Z,54.21
2023-04-14T14:07:21.005Z,54.67
2023-04-14T14:10:07.186Z,56.54
2023-04-14T14:12:52.657Z,54.82
2023-04-14T14:15:38.554Z,55.58
2023-04-14T14:18:24.146Z,54.78
2023-04-14T14:21:09.145Z,54.86
2023-04-14T14:23:54.380Z,56.25
2023-04-14T14:26:39.679Z,56.26
2023-04-14T14:29:25.069Z,57.96
2023-04-14T14:32:10.832Z,59.06
2023-04-14T14:34:56.283Z,56.21
2023-04-14T14:37:42.054Z,57.25
2023-04-14T14:40:28.616Z,58.68
2023-04-14T14:43:14.196Z,58.36
2023-04-14T14:45:59.640Z,59.04
2023-04-14T14:48:45.013Z,58.44
2023-04-14T14:51:31.132Z,57.53
2023-04-14T14:54:16.568Z,58.50
2023-04-14T14:57:02.428Z,57.75
2023-04-14T14:59:48.166Z,56.52
2023-04-14T15:02:33.988Z,59.39
2023-04-14T15:05:19.493Z,62.10
2023-04-14T15:08:05.317Z,62.99
2023-04-14T15:10:51.887Z,61.00
2023-04-14T15:13:37.439Z,61.38
2023-04-14T15:16:22.994Z,63.68
2023-04-14T15:19:08.069Z,63.06
2023-04-14T15:21:53.368Z,64.42
2023-04-14T15:24:38.796Z,66.02
2023-04-14T15:27:24.605Z,67.80
2023-04-14T15:30:10.421Z,64.58
2023-04-14T15:32:55.933Z,62.08
2023-04-14T15:35:41.393Z,65.08
2023-04-14T15:38:26.968Z,64.21
2023-04-14T15:41:12.187Z,66.63
2023-04-14T15:43:57.294Z,67.52
2023-04-14T15:46:42.483Z,65.16
2023-04-14T15:49:28.126Z,64.15
2023-04-14T15:52:13.421Z,63.96
2023-04-14T15:54:58.878Z,66.31
2023-04-14T15:57:44.446Z,65.65
2023-04-14T16:00:30.011Z,68.63
2023-04-14T16:03:15.919Z,66.20
2023-04-14T16:06:03.201Z,65.63
2023-04-14T16:08:48.912Z,65.20
2023-04-14T16:11:34.486Z,64.13
2023-04-14T16:14:19.819Z,65.45
2023-04-14T16:17:05.611Z,66.44
2023-04-14T16:19:52.161Z,66.40
2023-04-14T16:22:38.617Z,66.05
2023-04-14T16:25:24.022Z,67.18
2023-04-14T16:28:09.838Z,68.69
2023-04-14T16:30:58.595Z,69.26
2023-04-14T16:33:44.010Z,68.33
2023-04-14T16:36:29.229Z,68.50
2023-04-14T16:39:14.872Z,66.16
2023-04-14T16:42:00.142Z,63.12
2023-04-14T16:44:45.450Z,62.35
2023-04-14T16:47:30.629Z,60.39
2023-04-14T16:50:16.356Z,60.69
2023-04-14T16:53:01.831Z,61.75
2023-04-14T16:55:47.200Z,60.39
2023-04-14T16:58:32.970Z,59.54
2023-04-14T17:01:18.715Z,58.89
2023-04-14T17:04:06.319Z,58.34
2023-04-14T17:06:51.840Z,58.23
2023-04-14T17:09:37.016Z,59.21
2023-04-14T17:12:22.225Z,60.34
2023-04-14T17:15:07.937Z,59.68
2023-04-14T17:17:54.601Z,60.59
2023-04-14T17:20:39.949Z,61.30
2023-04-14T17:23:25.236Z,61.58
2023-04-14T17:26:11.163Z,62.28
2023-04-14T17:28:56.907Z,62.36
2023-04-14T17:31:42.028Z,64.30
2023-04-14T17:34:28.382Z,64.50
2023-04-14T17:37:13.854Z,64.43
2023-04-14T17:40:00.047Z,64.75
2023-04-14T17:42:45.273Z,63.67
2023-04-14T17:45:31.191Z,63.34
2023-04-14T17:48:16.600Z,62.86
2023-04-14T17:51:03.140Z,63.13
2023-04-14T17:53:48.974Z,63.54
2023-04-14T17:56:34.593Z,64.31
2023-04-14T17:59:20.465Z,64.64
2023-04-14T18:02:06.088Z,64.69
2023-04-14T18:04:51.571Z,65.01
2023-04-14T18:07:36.912Z,64.57
2023-04-14T18:10:22.152Z,65.95
2023-04-14T18:13:07.615Z,66.75
2023-04-14T18:15:53.245Z,67.89
2023-04-14T18:18:38.842Z,68.35
2023-04-14T18:21:24.378Z,68.34
2023-04-14T18:26:58.631Z,67.51
2023-04-14T18:29:44.034Z,66.61
2023-04-14T18:32:29.491Z,66.27
2023-04-14T18:35:15.008Z,66.04
2023-04-14T18:37:59.806Z,65.75
2023-04-14T18:40:46.071Z,65.85
2023-04-14T18:43:32.389Z,65.88
2023-04-14T18:46:18.043Z,65.80
2023-04-14T18:49:04.152Z,65.42
2023-04-14T18:51:49.658Z,65.37
2023-04-14T18:54:34.788Z,65.21
2023-04-14T18:57:20.504Z,65.24
2023-04-14T19:00:06.642Z,65.06
2023-04-14T19:02:52.032Z,65.61
2023-04-14T19:05:37.452Z,65.42
2023-04-14T19:08:22.769Z,65.72
2023-04-14T19:11:08.031Z,65.76
2023-04-14T19:13:53.240Z,66.00
2023-04-14T19:16:38.970Z,66.26
2023-04-14T19:19:24.506Z,66.46
2023-04-14T19:22:10.280Z,66.55
2023-04-14T19:24:55.453Z,66.76
2023-04-14T19:27:43.217Z,66.80
2023-04-14T19:30:29.405Z,67.49
2023-04-14T19:33:15.003Z,67.62
2023-04-14T19:36:00.570Z,67.28
2023-04-14T19:38:45.939Z,67.29
2023-04-14T19:41:31.575Z,66.96
2023-04-14T19:44:16.820Z,67.31
2023-04-14T19:47:02.488Z,67.44
2023-04-14T19:49:48.182Z,67.37
2023-04-14T19:52:34.086Z,67.61
2023-04-14T19:55:19.599Z,67.75
2023-04-14T19:58:05.182Z,68.08
2023-04-14T20:00:52.729Z,67.80
2023-04-14T20:03:38.560Z,68.34
2023-04-14T20:06:43.816Z,68.23
2023-04-14T20:09:29.458Z,68.62
2023-04-14T20:12:14.742Z,68.98
2023-04-14T20:15:00.166Z,69.06
2023-04-14T20:17:45.731Z,69.37
2023-04-14T20:20:30.926Z,69.21
2023-04-14T20:23:16.650Z,69.65
2023-04-14T20:26:02.234Z,69.83
2023-04-14T20:28:47.577Z,69.57
2023-04-14T20:31:33.488Z,69.50
2023-04-14T20:34:20.329Z,70.78
2023-04-14T20:37:05.978Z,70.96
2023-04-14T20:39:51.408Z,70.16
2023-04-14T20:42:36.714Z,70.30
2023-04-14T20:45:22.513Z,70.67
2023-04-14T20:48:08.166Z,69.91
2023-04-14T20:50:53.733Z,69.73
2023-04-14T20:53:39.420Z,69.12
2023-04-14T20:56:24.841Z,68.96
2023-04-14T20:59:10.592Z,68.29
2023-04-14T21:01:56.380Z,68.08
2023-04-14T21:04:42.353Z,67.51
2023-04-14T21:07:27.754Z,67.86
2023-04-14T21:10:13.546Z,68.70
2023-04-14T21:15:29.290Z,69.08
2023-04-14T21:16:04.164Z,69.49
2023-04-14T21:18:54.976Z,69.40
2023-04-14T21:21:40.782Z,69.45
2023-04-14T21:24:26.521Z,69.79
2023-04-14T21:27:12.088Z,70.08
2023-04-14T21:29:57.661Z,70.06
2023-04-14T21:32:43.743Z,70.37
2023-04-14T21:35:29.257Z,69.75
2023-04-14T21:38:14.884Z,69.76
2023-04-14T21:41:00.482Z,69.40
2023-04-14T21:43:46.030Z,70.16
2023-04-14T21:46:32.947Z,69.96
2023-04-14T21:49:19.175Z,69.77
2023-04-14T21:52:04.284Z,70.06
2023-04-14T21:54:50.050Z,70.57
2023-04-14T21:57:48.851Z,69.98
2023-04-14T22:00:35.226Z,70.09
2023-04-14T22:03:20.667Z,69.85
2023-04-14T22:06:06.639Z,70.00
2023-04-14T22:08:52.136Z,70.42
2023-04-14T22:11:38.031Z,70.92
2023-04-14T22:14:23.342Z,70.72
2023-04-14T22:17:09.384Z,70.82
2023-04-14T22:19:54.649Z,70.91
2023-04-14T22:22:42.068Z,70.54
2023-04-14T22:25:28.821Z,70.64
2023-04-14T22:28:14.415Z,70.22
2023-04-14T22:31:01.004Z,70.03
2023-04-14T22:33:46.708Z,70.44
2023-04-14T22:36:32.434Z,71.16
2023-04-14T22:39:18.239Z,71.52
2023-04-14T22:42:03.861Z,71.37
2023-04-14T22:44:49.230Z,71.62
2023-04-14T22:47:34.472Z,71.86
2023-04-14T22:50:20.278Z,71.90
2023-04-14T22:53:06.228Z,71.96
2023-04-14T22:55:53.018Z,71.25
2023-04-14T22:58:38.252Z,71.43
2023-04-14T23:01:24.355Z,71.32
2023-04-14T23:04:09.754Z,71.40
2023-04-14T23:06:55.172Z,71.55
2023-04-14T23:09:40.196Z,71.71
2023-04-14T23:12:25.536Z,71.35
2023-04-14T23:15:11.052Z,71.99
2023-04-14T23:17:56.533Z,71.84
2023-04-14T23:20:42.027Z,72.41
2023-04-14T23:23:27.850Z,72.42
2023-04-14T23:26:13.414Z,72.20
2023-04-14T23:28:59.066Z,71.96
2023-04-14T23:31:44.341Z,71.31
2023-04-14T23:34:29.719Z,71.40
2023-04-14T23:37:15.211Z,72.36
2023-04-14T23:40:00.803Z,73.01
2023-04-14T23:42:46.145Z,73.90
2023-04-14T23:45:31.591Z,74.18
2023-04-14T23:48:16.989Z,74.74
2023-04-14T23:51:14.793Z,75.10
2023-04-14T23:54:00.540Z,75.01
2023-04-14T23:56:45.719Z,74.64
2023-04-14T23:59:30.917Z,74.82
